createdAt,value
2017-04-20T00:00:59.568Z,60.13
2017-04-20T00:02:00.179Z,60.03
2017-04-20T00:03:00.766Z,60.41
2017-04-20T00:04:01.356Z,60.13
2017-04-20T00:05:01.963Z,60.32
2017-04-20T00:06:02.554Z,60.13
2017-04-20T00:07:03.145Z,60.22
2017-04-20T00:08:03.751Z,60.13
2017-04-20T00:09:04.357Z,60.00
2017-04-20T00:10:04.947Z,60.19
2017-04-20T00:11:05.539Z,60.29
2017-04-20T00:12:06.129Z,60.19
2017-04-20T00:13:06.742Z,60.13
2017-04-20T00:14:07.354Z,59.53
2017-04-20T00:15:07.941Z,60.10
2017-04-20T00:16:08.537Z,60.19
2017-04-20T00:17:09.124Z,60.10
2017-04-20T00:18:09.720Z,60.29
2017-04-20T00:19:10.314Z,60.10
2017-04-20T00:20:10.902Z,60.00
2017-04-20T00:21:11.494Z,60.19
2017-04-20T00:22:12.083Z,60.19
2017-04-20T00:23:12.680Z,60.19
2017-04-20T00:24:13.273Z,60.00
2017-04-20T00:25:13.880Z,60.19
2017-04-20T00:26:14.492Z,60.29
2017-04-20T00:27:15.097Z,60.10
2017-04-20T00:28:15.693Z,60.10
2017-04-20T00:29:16.284Z,60.10
2017-04-20T00:30:16.873Z,60.19
2017-04-20T00:31:17.463Z,60.77
2017-04-20T00:32:18.054Z,60.58
2017-04-20T00:33:18.660Z,60.19
2017-04-20T00:34:19.265Z,60.19
2017-04-20T00:35:19.854Z,60.19
2017-04-20T00:36:20.445Z,60.19
2017-04-20T00:37:21.039Z,60.29
2017-04-20T00:38:21.625Z,60.67
2017-04-20T00:39:22.215Z,60.77
2017-04-20T00:40:22.806Z,60.19
2017-04-20T00:41:23.402Z,60.38
2017-04-20T00:42:23.989Z,60.38
2017-04-20T00:43:24.584Z,60.10
2017-04-20T00:44:25.174Z,60.19
2017-04-20T00:45:25.763Z,60.19
2017-04-20T00:46:26.369Z,60.10
2017-04-20T00:47:26.976Z,60.29
2017-04-20T00:48:27.581Z,60.19
2017-04-20T00:49:28.176Z,60.00
2017-04-20T00:50:28.763Z,60.29
2017-04-20T00:51:29.355Z,60.19
2017-04-20T00:52:29.966Z,60.19
2017-04-20T00:53:30.553Z,59.91
2017-04-20T00:54:31.164Z,60.19
2017-04-20T00:55:31.752Z,60.38
2017-04-20T00:56:32.342Z,60.38
2017-04-20T00:57:32.948Z,60.38
2017-04-20T00:58:33.537Z,60.10
2017-04-20T00:59:34.127Z,60.19
2017-04-20T01:00:34.718Z,60.03
2017-04-20T01:01:35.324Z,60.41
2017-04-20T01:02:35.913Z,60.41
2017-04-20T01:03:36.503Z,60.22
2017-04-20T01:04:37.098Z,60.13
2017-04-20T01:05:37.692Z,60.13
2017-04-20T01:06:38.284Z,60.41
2017-04-20T01:07:38.873Z,60.41
2017-04-20T01:08:39.469Z,60.32
2017-04-20T01:09:40.058Z,60.13
2017-04-20T01:10:40.673Z,60.13
2017-04-20T01:11:41.278Z,60.13
2017-04-20T01:12:41.866Z,59.94
2017-04-20T01:13:42.462Z,60.13
2017-04-20T01:14:43.050Z,59.75
2017-04-20T01:15:43.654Z,59.66
2017-04-20T01:16:44.247Z,59.47
2017-04-20T01:17:44.842Z,59.38
2017-04-20T01:18:45.428Z,59.28
2017-04-20T01:19:46.021Z,59.19
2017-04-20T01:20:46.632Z,59.28
2017-04-20T01:21:47.242Z,59.56
2017-04-20T01:22:47.828Z,59.56
2017-04-20T01:23:48.417Z,59.66
2017-04-20T01:24:49.009Z,59.75
2017-04-20T01:25:49.605Z,59.66
2017-04-20T01:26:50.211Z,59.38
2017-04-20T01:27:50.805Z,59.56
2017-04-20T01:28:51.394Z,59.75
2017-04-20T01:29:51.989Z,59.19
2017-04-20T01:30:52.577Z,59.19
2017-04-20T01:31:53.173Z,59.19
2017-04-20T01:32:53.779Z,59.00
2017-04-20T01:33:54.369Z,59.38
2017-04-20T01:34:54.979Z,59.09
2017-04-20T01:35:55.550Z,59.00
2017-04-20T01:36:56.143Z,59.38
2017-04-20T01:37:56.734Z,59.66
2017-04-20T01:38:57.326Z,59.09
2017-04-20T01:39:57.922Z,58.43
2017-04-20T01:40:58.509Z,58.33
2017-04-20T01:41:59.100Z,58.52
2017-04-20T01:42:59.690Z,59.00
2017-04-20T01:44:00.279Z,59.56
2017-04-20T01:45:00.877Z,59.34
2017-04-20T01:46:01.469Z,59.16
2017-04-20T01:47:02.057Z,59.34
2017-04-20T01:48:02.648Z,58.90
2017-04-20T01:49:03.253Z,59.09
2017-04-20T01:50:03.843Z,59.44
2017-04-20T01:51:04.454Z,59.16
2017-04-20T01:52:05.039Z,59.25
2017-04-20T01:53:05.629Z,58.68
2017-04-20T01:54:06.225Z,58.87
2017-04-20T01:55:06.813Z,58.59
2017-04-20T01:56:07.418Z,58.49
2017-04-20T01:57:08.024Z,58.49
2017-04-20T01:58:08.615Z,58.78
2017-04-20T01:59:09.206Z,58.68
2017-04-20T02:00:09.797Z,58.78
2017-04-20T02:01:10.385Z,58.68
2017-04-20T02:02:10.976Z,58.59
2017-04-20T02:03:11.566Z,58.78
2017-04-20T02:04:12.156Z,58.68
2017-04-20T02:05:12.751Z,58.59
2017-04-20T02:06:13.341Z,58.49
2017-04-20T02:07:13.930Z,58.68
2017-04-20T02:08:14.519Z,58.59
2017-04-20T02:09:15.110Z,58.30
2017-04-20T02:10:15.700Z,58.97
2017-04-20T02:11:16.291Z,58.59
2017-04-20T02:12:16.882Z,58.78
2017-04-20T02:13:17.477Z,58.68
2017-04-20T02:14:18.110Z,58.87
2017-04-20T02:15:18.697Z,58.78
2017-04-20T02:16:19.288Z,58.40
2017-04-20T02:17:19.879Z,58.68
2017-04-20T02:18:20.474Z,58.59
2017-04-20T02:19:21.062Z,58.68
2017-04-20T02:20:21.655Z,58.30
2017-04-20T02:21:22.243Z,58.40
2017-04-20T02:22:22.847Z,58.59
2017-04-20T02:23:23.437Z,58.30
2017-04-20T02:24:24.028Z,58.21
2017-04-20T02:25:24.616Z,58.37
2017-04-20T02:26:25.207Z,58.68
2017-04-20T02:27:25.796Z,58.47
2017-04-20T02:28:26.387Z,58.84
2017-04-20T02:29:26.977Z,58.84
2017-04-20T02:30:27.566Z,58.84
2017-04-20T02:31:28.156Z,58.94
2017-04-20T02:32:28.748Z,58.84
2017-04-20T02:33:29.336Z,58.94
2017-04-20T02:34:29.926Z,59.12
2017-04-20T02:35:30.518Z,59.03
2017-04-20T02:36:31.107Z,58.84
2017-04-20T02:37:31.698Z,59.12
2017-04-20T02:38:32.310Z,59.03
2017-04-20T02:39:32.896Z,58.94
2017-04-20T02:40:33.487Z,58.84
2017-04-20T02:41:34.081Z,59.03
2017-04-20T02:42:34.674Z,59.12
2017-04-20T02:43:35.268Z,59.22
2017-04-20T02:44:35.855Z,59.50
2017-04-20T02:45:36.445Z,59.12
2017-04-20T02:46:37.033Z,59.12
2017-04-20T02:47:37.623Z,59.03
2017-04-20T02:48:38.212Z,59.22
2017-04-20T02:49:38.802Z,59.22
2017-04-20T02:50:39.392Z,59.03
2017-04-20T02:51:39.981Z,59.50
2017-04-20T02:52:40.570Z,59.50
2017-04-20T02:53:41.166Z,59.60
2017-04-20T02:54:41.752Z,59.12
2017-04-20T02:55:42.360Z,59.22
2017-04-20T02:56:42.946Z,59.12
2017-04-20T02:57:43.536Z,58.94
2017-04-20T02:58:44.125Z,59.12
2017-04-20T02:59:44.718Z,59.31
2017-04-20T03:00:45.319Z,59.03
2017-04-20T03:01:45.910Z,59.22
2017-04-20T03:02:46.499Z,59.12
2017-04-20T03:03:47.094Z,59.12
2017-04-20T03:04:47.681Z,59.22
2017-04-20T03:05:48.270Z,59.41
2017-04-20T03:06:48.939Z,59.79
2017-04-20T03:07:49.527Z,59.31
2017-04-20T03:08:50.132Z,59.41
2017-04-20T03:09:50.721Z,59.60
2017-04-20T03:10:51.311Z,59.03
2017-04-20T03:11:51.901Z,59.50
2017-04-20T03:12:52.491Z,59.50
2017-04-20T03:13:53.096Z,59.03
2017-04-20T03:14:53.691Z,59.22
2017-04-20T03:15:54.277Z,59.69
2017-04-20T03:16:54.866Z,59.69
2017-04-20T03:17:55.472Z,59.03
2017-04-20T03:18:56.078Z,59.12
2017-04-20T03:19:56.682Z,59.03
2017-04-20T03:20:57.271Z,59.69
2017-04-20T03:21:57.860Z,59.22
2017-04-20T03:22:58.451Z,59.41
2017-04-20T03:23:59.040Z,59.31
2017-04-20T03:24:59.628Z,59.69
2017-04-20T03:26:00.220Z,59.88
2017-04-20T03:27:00.809Z,59.41
2017-04-20T03:28:01.413Z,59.69
2017-04-20T03:29:02.009Z,59.69
2017-04-20T03:30:02.619Z,59.50
2017-04-20T03:31:03.205Z,59.50
2017-04-20T03:32:03.796Z,59.22
2017-04-20T03:33:04.390Z,59.50
2017-04-20T03:34:04.984Z,59.60
2017-04-20T03:35:05.570Z,59.41
2017-04-20T03:36:06.159Z,59.88
2017-04-20T03:37:06.755Z,59.69
2017-04-20T03:38:07.347Z,60.07
2017-04-20T03:39:07.934Z,60.07
2017-04-20T03:40:08.523Z,59.60
2017-04-20T03:41:09.128Z,60.07
2017-04-20T03:42:09.717Z,59.88
2017-04-20T03:43:10.307Z,59.88
2017-04-20T03:44:10.895Z,59.79
2017-04-20T03:45:11.486Z,59.98
2017-04-20T03:46:12.081Z,60.17
2017-04-20T03:47:12.667Z,60.07
2017-04-20T03:48:13.262Z,60.26
2017-04-20T03:49:13.874Z,59.98
2017-04-20T03:50:14.468Z,60.17
2017-04-20T03:51:15.057Z,59.98
2017-04-20T03:52:15.646Z,60.17
2017-04-20T03:53:16.237Z,59.98
2017-04-20T03:54:16.824Z,59.88
2017-04-20T03:55:17.416Z,59.98
2017-04-20T03:56:18.021Z,60.07
2017-04-20T03:57:18.654Z,60.17
2017-04-20T03:58:19.317Z,60.17
2017-04-20T03:59:19.979Z,60.26
2017-04-20T04:00:20.568Z,60.17
2017-04-20T04:01:21.156Z,60.26
2017-04-20T04:02:21.749Z,60.36
2017-04-20T04:03:22.335Z,60.26
2017-04-20T04:04:22.940Z,60.17
2017-04-20T04:05:23.528Z,60.26
2017-04-20T04:06:24.134Z,60.17
2017-04-20T04:07:24.722Z,60.07
2017-04-20T04:08:25.311Z,60.45
2017-04-20T04:09:25.916Z,60.17
2017-04-20T04:10:26.505Z,60.26
2017-04-20T04:11:27.095Z,60.26
2017-04-20T04:12:27.684Z,60.07
2017-04-20T04:13:28.282Z,60.26
2017-04-20T04:14:28.874Z,60.17
2017-04-20T04:15:29.462Z,59.98
2017-04-20T04:16:30.052Z,60.36
2017-04-20T04:17:30.644Z,60.36
2017-04-20T04:18:31.232Z,60.36
2017-04-20T04:19:31.821Z,60.17
2017-04-20T04:20:32.413Z,60.74
2017-04-20T04:21:33.008Z,60.64
2017-04-20T04:22:33.597Z,60.17
2017-04-20T04:23:34.201Z,60.26
2017-04-20T04:24:34.792Z,60.17
2017-04-20T04:25:35.384Z,60.07
2017-04-20T04:26:35.975Z,60.26
2017-04-20T04:27:36.564Z,60.55
2017-04-20T04:28:37.157Z,60.45
2017-04-20T04:29:37.748Z,60.74
2017-04-20T04:30:38.340Z,60.74
2017-04-20T04:31:38.947Z,60.64
2017-04-20T04:32:39.543Z,60.74
2017-04-20T04:33:40.153Z,60.64
2017-04-20T04:34:40.728Z,60.45
2017-04-20T04:35:41.320Z,60.64
2017-04-20T04:36:41.913Z,60.36
2017-04-20T04:37:42.511Z,60.64
2017-04-20T04:38:43.105Z,60.93
2017-04-20T04:39:43.695Z,60.45
2017-04-20T04:40:44.293Z,60.83
2017-04-20T04:41:44.882Z,60.36
2017-04-20T04:42:45.476Z,60.36
2017-04-20T04:43:46.135Z,60.64
2017-04-20T04:44:46.734Z,60.64
2017-04-20T04:45:47.331Z,60.26
2017-04-20T04:46:47.919Z,60.45
2017-04-20T04:47:48.512Z,60.93
2017-04-20T04:48:49.104Z,61.02
2017-04-20T04:49:49.717Z,60.64
2017-04-20T04:50:50.308Z,60.83
2017-04-20T04:51:50.905Z,61.02
2017-04-20T04:52:51.498Z,60.74
2017-04-20T04:53:52.106Z,60.55
2017-04-20T04:54:52.698Z,60.26
2017-04-20T04:55:53.296Z,60.36
2017-04-20T04:56:53.892Z,60.36
2017-04-20T04:57:54.481Z,60.74
2017-04-20T04:58:55.080Z,60.55
2017-04-20T04:59:55.669Z,60.55
2017-04-20T05:00:56.268Z,60.64
2017-04-20T05:01:56.860Z,60.36
2017-04-20T05:02:57.469Z,60.64
2017-04-20T05:03:58.065Z,60.36
2017-04-20T05:04:58.668Z,60.86
2017-04-20T05:05:59.259Z,60.77
2017-04-20T05:06:59.855Z,60.96
2017-04-20T05:08:00.452Z,60.51
2017-04-20T05:09:01.046Z,60.41
2017-04-20T05:10:01.644Z,59.94
2017-04-20T05:11:02.239Z,59.78
2017-04-20T05:12:02.837Z,59.59
2017-04-20T05:13:03.431Z,58.65
2017-04-20T05:14:04.094Z,58.84
2017-04-20T05:15:04.723Z,58.29
2017-04-20T05:16:05.341Z,58.39
2017-04-20T05:17:06.016Z,57.92
2017-04-20T05:18:06.612Z,57.16
2017-04-20T05:19:07.275Z,57.35
2017-04-20T05:20:07.874Z,57.09
2017-04-20T05:21:08.489Z,57.09
2017-04-20T05:22:09.087Z,56.62
2017-04-20T05:23:09.703Z,57.09
2017-04-20T05:24:10.369Z,56.24
2017-04-20T05:25:11.000Z,56.52
2017-04-20T05:26:11.616Z,55.96
2017-04-20T05:27:12.271Z,55.98
2017-04-20T05:28:12.934Z,55.79
2017-04-20T05:29:13.587Z,55.98
2017-04-20T05:30:14.217Z,55.60
2017-04-20T05:31:14.846Z,55.13
2017-04-20T05:32:15.473Z,54.94
2017-04-20T05:33:16.102Z,55.16
2017-04-20T05:34:16.702Z,54.97
2017-04-20T05:35:17.378Z,54.87
2017-04-20T05:36:18.059Z,54.30
2017-04-20T05:37:18.667Z,53.83
2017-04-20T05:38:19.341Z,53.73
2017-04-20T05:39:20.009Z,53.35
2017-04-20T05:40:20.681Z,53.57
2017-04-20T05:41:21.304Z,53.28
2017-04-20T05:42:21.987Z,53.57
2017-04-20T05:43:22.654Z,53.19
2017-04-20T05:44:23.256Z,53.03
2017-04-20T05:45:23.942Z,52.36
2017-04-20T05:46:24.568Z,52.74
2017-04-20T05:47:25.176Z,52.45
2017-04-20T05:48:25.807Z,52.39
2017-04-20T05:49:26.430Z,52.20
2017-04-20T05:50:27.033Z,52.01
2017-04-20T05:51:27.694Z,50.68
2017-04-20T05:52:28.324Z,50.58
2017-04-20T05:53:29.024Z,51.18
2017-04-20T05:54:29.661Z,51.08
2017-04-20T05:55:30.327Z,50.79
2017-04-20T05:56:30.977Z,51.10
2017-04-20T05:57:31.635Z,51.01
2017-04-20T05:58:32.311Z,50.46
2017-04-20T05:59:32.926Z,49.71
2017-04-20T06:00:33.529Z,49.32
2017-04-20T06:01:34.142Z,49.35
2017-04-20T06:02:34.747Z,49.16
2017-04-20T06:03:35.414Z,48.99
2017-04-20T06:04:36.042Z,47.94
2017-04-20T06:05:36.739Z,46.89
2017-04-20T06:06:37.414Z,46.80
2017-04-20T06:07:38.094Z,47.18
2017-04-20T06:08:38.787Z,47.37
2017-04-20T06:09:39.399Z,47.11
2017-04-20T06:10:40.004Z,47.49
2017-04-20T06:11:40.648Z,46.25
2017-04-20T06:12:41.357Z,46.06
2017-04-20T06:13:41.968Z,45.78
2017-04-20T06:14:42.579Z,45.01
2017-04-20T06:15:43.204Z,44.63
2017-04-20T06:16:43.829Z,44.34
2017-04-20T06:17:44.439Z,44.51
2017-04-20T06:18:45.048Z,44.51
2017-04-20T06:19:45.667Z,44.42
2017-04-20T06:20:46.274Z,44.60
2017-04-20T06:21:46.886Z,44.60
2017-04-20T06:22:47.496Z,45.18
2017-04-20T06:23:48.105Z,44.63
2017-04-20T06:24:48.716Z,44.73
2017-04-20T06:25:49.338Z,44.25
2017-04-20T06:26:49.949Z,43.77
2017-04-20T06:27:50.577Z,42.44
2017-04-20T06:28:51.184Z,42.44
2017-04-20T06:29:51.811Z,43.08
2017-04-20T06:30:52.427Z,43.49
2017-04-20T06:31:53.044Z,43.68
2017-04-20T06:32:53.670Z,43.49
2017-04-20T06:33:54.287Z,42.63
2017-04-20T06:34:54.913Z,42.44
2017-04-20T06:35:55.523Z,42.34
2017-04-20T06:36:56.133Z,41.98
2017-04-20T06:37:56.765Z,42.15
2017-04-20T06:38:57.379Z,41.58
2017-04-20T06:39:57.991Z,41.39
2017-04-20T06:40:58.619Z,40.91
2017-04-20T06:41:59.230Z,40.63
2017-04-20T06:42:59.841Z,41.77
2017-04-20T06:44:00.453Z,42.05
2017-04-20T06:45:01.063Z,42.17
2017-04-20T06:46:01.675Z,42.08
2017-04-20T06:47:02.295Z,42.10
2017-04-20T06:48:02.912Z,40.76
2017-04-20T06:49:03.522Z,39.61
2017-04-20T06:50:04.139Z,40.00
2017-04-20T06:51:04.766Z,40.00
2017-04-20T06:52:05.378Z,40.09
2017-04-20T06:53:05.996Z,39.61
2017-04-20T06:54:06.611Z,39.90
2017-04-20T06:55:07.219Z,39.71
2017-04-20T06:56:07.839Z,40.01
2017-04-20T06:57:08.447Z,39.15
2017-04-20T06:58:09.061Z,38.68
2017-04-20T06:59:09.675Z,38.28
2017-04-20T07:00:10.287Z,38.37
2017-04-20T07:01:10.901Z,37.90
2017-04-20T07:02:11.513Z,37.78
2017-04-20T07:03:12.130Z,37.68
2017-04-20T07:04:12.740Z,37.97
2017-04-20T07:05:13.360Z,38.64
2017-04-20T07:06:13.989Z,38.64
2017-04-20T07:07:14.602Z,38.83
2017-04-20T07:08:15.216Z,38.35
2017-04-20T07:09:15.844Z,38.26
2017-04-20T07:10:16.458Z,38.85
2017-04-20T07:11:17.073Z,38.66
2017-04-20T07:12:17.692Z,38.39
2017-04-20T07:13:18.309Z,38.78
2017-04-20T07:14:18.919Z,38.22
2017-04-20T07:15:19.538Z,38.12
2017-04-20T07:16:20.168Z,37.09
2017-04-20T07:17:20.780Z,36.90
2017-04-20T07:18:21.408Z,36.71
2017-04-20T07:19:22.022Z,36.33
2017-04-20T07:20:22.636Z,34.97
2017-04-20T07:21:23.256Z,34.11
2017-04-20T07:22:23.874Z,34.00
2017-04-20T07:23:24.486Z,34.08
2017-04-20T07:24:25.102Z,34.36
2017-04-20T07:25:25.719Z,34.73
2017-04-20T07:26:26.332Z,34.92
2017-04-20T07:27:26.946Z,35.11
2017-04-20T07:28:27.576Z,35.11
2017-04-20T07:29:28.195Z,35.39
2017-04-20T07:30:28.807Z,35.68
2017-04-20T07:31:29.422Z,36.35
2017-04-20T07:32:30.035Z,35.59
2017-04-20T07:33:30.652Z,34.92
2017-04-20T07:34:31.286Z,34.63
2017-04-20T07:35:31.898Z,35.02
2017-04-20T07:36:32.528Z,35.78
2017-04-20T07:37:33.142Z,36.18
2017-04-20T07:38:33.758Z,36.18
2017-04-20T07:39:34.373Z,35.82
2017-04-20T07:40:34.987Z,35.43
2017-04-20T07:41:35.601Z,34.78
2017-04-20T07:42:36.216Z,34.78
2017-04-20T07:43:37.069Z,33.73
2017-04-20T07:44:37.679Z,33.35
2017-04-20T07:45:38.295Z,33.33
2017-04-20T07:46:38.916Z,33.62
2017-04-20T07:47:39.545Z,33.52
2017-04-20T07:48:40.163Z,34.09
2017-04-20T07:49:40.777Z,33.42
2017-04-20T07:50:41.395Z,33.91
2017-04-20T07:51:42.011Z,34.11
2017-04-20T07:52:42.725Z,33.54
2017-04-20T07:53:43.347Z,33.92
2017-04-20T07:54:43.966Z,33.65
2017-04-20T07:55:44.579Z,34.03
2017-04-20T07:56:45.195Z,33.76
2017-04-20T07:57:45.810Z,33.00
2017-04-20T07:58:46.427Z,32.81
2017-04-20T07:59:47.058Z,32.81
2017-04-20T08:00:47.674Z,32.52
2017-04-20T08:01:48.486Z,32.71
2017-04-20T08:02:49.117Z,32.73
2017-04-20T08:03:49.732Z,33.11
2017-04-20T08:04:50.347Z,32.75
2017-04-20T08:05:50.965Z,32.17
2017-04-20T08:06:51.581Z,31.61
2017-04-20T08:07:52.197Z,31.42
2017-04-20T08:08:52.816Z,31.04
2017-04-20T08:09:53.438Z,31.23
2017-04-20T08:10:54.050Z,30.36
2017-04-20T08:11:54.667Z,29.50
2017-04-20T08:12:55.285Z,29.49
2017-04-20T08:13:55.902Z,29.01
2017-04-20T08:14:56.520Z,28.99
2017-04-20T08:15:57.139Z,29.19
2017-04-20T08:16:57.757Z,29.66
2017-04-20T08:17:58.395Z,29.38
2017-04-20T08:18:59.010Z,28.99
2017-04-20T08:19:59.629Z,29.08
2017-04-20T08:21:00.244Z,29.63
2017-04-20T08:22:00.858Z,30.00
2017-04-20T08:23:01.474Z,30.38
2017-04-20T08:24:02.356Z,31.35
2017-04-20T08:25:02.977Z,31.07
2017-04-20T08:26:03.591Z,30.80
2017-04-20T08:27:04.211Z,31.09
2017-04-20T08:28:04.824Z,31.30
2017-04-20T08:29:05.440Z,31.71
2017-04-20T08:30:06.057Z,31.64
2017-04-20T08:31:06.679Z,31.00
2017-04-20T08:32:07.293Z,29.56
2017-04-20T08:33:07.933Z,29.19
2017-04-20T08:34:08.795Z,29.11
2017-04-20T08:35:09.434Z,28.44
2017-04-20T08:36:10.048Z,27.67
2017-04-20T08:37:10.670Z,27.55
2017-04-20T08:38:11.304Z,27.93
2017-04-20T08:39:12.169Z,28.11
2017-04-20T08:40:12.788Z,27.23
2017-04-20T08:41:13.419Z,27.31
2017-04-20T08:42:14.034Z,27.59
2017-04-20T08:43:14.649Z,28.15
2017-04-20T08:44:15.264Z,28.04
2017-04-20T08:45:15.879Z,28.22
2017-04-20T08:46:16.493Z,27.62
2017-04-20T08:47:17.122Z,28.09
2017-04-20T08:48:17.751Z,28.35
2017-04-20T08:49:18.364Z,29.21
2017-04-20T08:50:18.975Z,29.96
2017-04-20T08:51:19.589Z,31.12
2017-04-20T08:52:20.206Z,31.21
2017-04-20T08:53:20.818Z,30.37
2017-04-20T08:54:21.685Z,30.00
2017-04-20T08:55:22.315Z,29.62
2017-04-20T08:56:22.909Z,29.92
2017-04-20T08:57:23.538Z,29.65
2017-04-20T08:58:24.152Z,29.20
2017-04-20T08:59:24.789Z,28.34
2017-04-20T09:00:25.399Z,27.39
2017-04-20T09:01:26.014Z,27.20
2017-04-20T09:02:26.645Z,27.30
2017-04-20T09:03:27.277Z,27.98
2017-04-20T09:04:28.149Z,28.28
2017-04-20T09:05:28.769Z,27.36
2017-04-20T09:06:29.383Z,26.87
2017-04-20T09:07:30.006Z,27.08
2017-04-20T09:08:30.625Z,26.03
2017-04-20T09:09:31.240Z,26.23
2017-04-20T09:10:31.856Z,26.05
2017-04-20T09:11:32.476Z,25.95
2017-04-20T09:12:33.094Z,25.58
2017-04-20T09:13:33.729Z,24.23
2017-04-20T09:14:34.611Z,23.15
2017-04-20T09:15:35.241Z,23.52
2017-04-20T09:16:35.851Z,23.79
2017-04-20T09:17:36.465Z,24.26
2017-04-20T09:18:37.082Z,24.82
2017-04-20T09:19:37.714Z,25.11
2017-04-20T09:20:38.332Z,25.49
2017-04-20T09:21:38.950Z,25.41
2017-04-20T09:22:39.587Z,24.73
2017-04-20T09:23:40.219Z,24.44
2017-04-20T09:24:41.104Z,24.54
2017-04-20T09:25:41.743Z,24.91
2017-04-20T09:26:42.362Z,25.68
2017-04-20T09:27:42.981Z,24.44
2017-04-20T09:28:43.614Z,24.54
2017-04-20T09:29:44.485Z,24.22
2017-04-20T09:30:45.104Z,23.54
2017-04-20T09:31:45.715Z,24.76
2017-04-20T09:32:46.330Z,25.23
2017-04-20T09:33:46.960Z,25.42
2017-04-20T09:34:47.575Z,25.60
2017-04-20T09:35:48.195Z,25.70
2017-04-20T09:36:48.813Z,25.98
2017-04-20T09:37:49.424Z,25.58
2017-04-20T09:38:50.042Z,25.47
2017-04-20T09:39:50.650Z,25.74
2017-04-20T09:40:51.262Z,26.50
2017-04-20T09:41:51.872Z,26.86
2017-04-20T09:42:52.592Z,27.81
2017-04-20T09:43:53.199Z,28.47
2017-04-20T09:44:54.063Z,28.75
2017-04-20T09:45:54.678Z,28.94
2017-04-20T09:46:55.301Z,29.52
2017-04-20T09:47:55.909Z,29.33
2017-04-20T09:48:56.518Z,29.14
2017-04-20T09:49:57.131Z,29.23
2017-04-20T09:50:57.734Z,29.22
2017-04-20T09:51:58.338Z,29.22
2017-04-20T09:52:58.943Z,29.69
2017-04-20T09:53:59.565Z,29.79
2017-04-20T09:55:00.437Z,29.88
2017-04-20T09:56:01.047Z,30.17
2017-04-20T09:57:01.656Z,30.25
2017-04-20T09:58:02.515Z,30.25
2017-04-20T09:59:03.115Z,30.15
2017-04-20T10:00:03.721Z,30.25
2017-04-20T10:01:04.327Z,30.54
2017-04-20T10:02:04.931Z,31.29
2017-04-20T10:03:05.791Z,32.09
2017-04-20T10:04:06.401Z,32.01
2017-04-20T10:05:07.330Z,31.37
2017-04-20T10:06:08.185Z,30.71
2017-04-20T10:07:08.791Z,29.67
2017-04-20T10:08:09.657Z,29.58
2017-04-20T10:09:10.262Z,29.10
2017-04-20T10:10:10.875Z,28.99
2017-04-20T10:11:11.554Z,28.70
2017-04-20T10:12:12.159Z,28.88
2017-04-20T10:13:12.771Z,29.36
2017-04-20T10:14:13.400Z,29.64
2017-04-20T10:15:14.003Z,30.10
2017-04-20T10:16:14.624Z,29.82
2017-04-20T10:17:15.230Z,30.39
2017-04-20T10:18:15.835Z,30.20
2017-04-20T10:19:16.441Z,30.00
2017-04-20T10:20:17.053Z,29.52
2017-04-20T10:21:17.656Z,29.99
2017-04-20T10:22:18.261Z,30.26
2017-04-20T10:23:18.871Z,30.26
2017-04-20T10:24:19.493Z,30.65
2017-04-20T10:25:20.098Z,30.83
2017-04-20T10:26:20.722Z,31.31
2017-04-20T10:27:21.322Z,31.02
2017-04-20T10:28:21.933Z,31.02
2017-04-20T10:29:22.536Z,31.12
2017-04-20T10:30:23.145Z,30.83
2017-04-20T10:31:23.750Z,31.31
2017-04-20T10:32:24.353Z,31.42
2017-04-20T10:33:24.958Z,31.61
2017-04-20T10:34:25.564Z,31.71
2017-04-20T10:35:26.167Z,31.72
2017-04-20T10:36:26.774Z,31.44
2017-04-20T10:37:27.380Z,31.44
2017-04-20T10:38:27.984Z,30.96
2017-04-20T10:39:28.588Z,31.05
2017-04-20T10:40:29.192Z,30.88
2017-04-20T10:41:29.798Z,31.26
2017-04-20T10:42:30.410Z,30.88
2017-04-20T10:43:31.012Z,29.91
2017-04-20T10:44:31.616Z,29.15
2017-04-20T10:45:32.219Z,28.94
2017-04-20T10:46:32.823Z,29.23
2017-04-20T10:47:33.435Z,29.61
2017-04-20T10:48:34.042Z,29.50
2017-04-20T10:49:34.643Z,29.69
2017-04-20T10:50:35.263Z,29.41
2017-04-20T10:51:35.867Z,29.31
2017-04-20T10:52:36.475Z,29.88
2017-04-20T10:53:37.080Z,29.58
2017-04-20T10:54:37.679Z,29.77
2017-04-20T10:55:38.287Z,30.44
2017-04-20T10:56:38.887Z,30.91
2017-04-20T10:57:39.490Z,31.21
2017-04-20T10:58:40.092Z,31.31
2017-04-20T10:59:40.700Z,31.31
2017-04-20T11:00:41.301Z,31.23
2017-04-20T11:01:41.908Z,31.04
2017-04-20T11:02:42.526Z,30.94
2017-04-20T11:03:43.151Z,31.04
2017-04-20T11:04:43.752Z,31.13
2017-04-20T11:05:44.357Z,30.47
2017-04-20T11:06:44.963Z,30.28
2017-04-20T11:07:45.567Z,30.28
2017-04-20T11:08:46.171Z,30.18
2017-04-20T11:09:46.795Z,29.99
2017-04-20T11:10:47.395Z,29.69
2017-04-20T11:11:48.018Z,29.69
2017-04-20T11:12:48.617Z,30.07
2017-04-20T11:13:49.229Z,30.46
2017-04-20T11:14:49.826Z,30.65
2017-04-20T11:15:50.429Z,30.74
2017-04-20T11:16:51.035Z,31.31
2017-04-20T11:17:51.641Z,30.93
2017-04-20T11:18:52.247Z,31.02
2017-04-20T11:19:52.849Z,30.93
2017-04-20T11:20:53.451Z,31.31
2017-04-20T11:21:54.055Z,31.40
2017-04-20T11:22:54.708Z,31.50
2017-04-20T11:23:55.310Z,31.50
2017-04-20T11:24:55.919Z,31.23
2017-04-20T11:25:56.522Z,31.04
2017-04-20T11:26:57.142Z,30.76
2017-04-20T11:27:57.745Z,30.46
2017-04-20T11:28:58.347Z,30.55
2017-04-20T11:29:58.952Z,30.83
2017-04-20T11:30:59.557Z,30.55
2017-04-20T11:32:00.174Z,30.65
2017-04-20T11:33:00.778Z,30.46
2017-04-20T11:34:01.380Z,30.93
2017-04-20T11:35:01.984Z,31.32
2017-04-20T11:36:02.642Z,30.55
2017-04-20T11:37:03.247Z,30.36
2017-04-20T11:38:03.846Z,30.26
2017-04-20T11:39:04.452Z,30.55
2017-04-20T11:40:05.075Z,30.85
2017-04-20T11:41:05.685Z,30.94
2017-04-20T11:42:06.492Z,30.85
2017-04-20T11:43:07.094Z,30.66
2017-04-20T11:44:07.698Z,30.76
2017-04-20T11:45:08.302Z,30.66
2017-04-20T11:46:08.907Z,30.57
2017-04-20T11:47:09.513Z,30.57
2017-04-20T11:48:10.120Z,30.76
2017-04-20T11:49:10.720Z,30.76
2017-04-20T11:50:11.323Z,30.74
2017-04-20T11:51:11.931Z,30.26
2017-04-20T11:52:12.532Z,30.26
2017-04-20T11:53:13.140Z,30.55
2017-04-20T11:54:13.738Z,31.02
2017-04-20T11:55:14.341Z,31.21
2017-04-20T11:56:14.965Z,31.12
2017-04-20T11:57:15.569Z,31.02
2017-04-20T11:58:16.169Z,31.12
2017-04-20T11:59:16.777Z,31.21
2017-04-20T12:00:17.377Z,30.83
2017-04-20T12:01:17.981Z,31.12
2017-04-20T12:02:18.581Z,30.93
2017-04-20T12:03:19.185Z,30.55
2017-04-20T12:04:20.087Z,30.46
2017-04-20T12:05:20.691Z,30.55
2017-04-20T12:06:21.294Z,30.36
2017-04-20T12:07:21.902Z,30.65
2017-04-20T12:08:22.526Z,30.83
2017-04-20T12:09:23.130Z,31.02
2017-04-20T12:10:23.732Z,30.82
2017-04-20T12:11:24.338Z,31.01
2017-04-20T12:12:24.944Z,31.01
2017-04-20T12:13:25.543Z,30.82
2017-04-20T12:14:26.151Z,31.20
2017-04-20T12:15:26.753Z,31.20
2017-04-20T12:16:27.371Z,31.39
2017-04-20T12:17:28.274Z,31.79
2017-04-20T12:18:28.876Z,31.98
2017-04-20T12:19:29.476Z,31.98
2017-04-20T12:20:30.083Z,31.79
2017-04-20T12:21:30.690Z,31.61
2017-04-20T12:22:31.292Z,31.23
2017-04-20T12:23:31.910Z,31.42
2017-04-20T12:24:32.526Z,31.32
2017-04-20T12:25:33.143Z,31.04
2017-04-20T12:26:33.995Z,30.57
2017-04-20T12:27:34.597Z,30.09
2017-04-20T12:28:35.206Z,29.71
2017-04-20T12:29:35.806Z,29.60
2017-04-20T12:30:36.413Z,29.88
2017-04-20T12:31:37.014Z,30.17
2017-04-20T12:32:37.622Z,30.26
2017-04-20T12:33:38.228Z,30.83
2017-04-20T12:34:38.838Z,30.83
2017-04-20T12:35:39.440Z,31.02
2017-04-20T12:36:40.046Z,30.57
2017-04-20T12:37:40.655Z,30.26
2017-04-20T12:38:41.251Z,30.26
2017-04-20T12:39:41.854Z,30.07
2017-04-20T12:40:42.464Z,30.26
2017-04-20T12:41:43.076Z,30.46
2017-04-20T12:42:43.743Z,30.57
2017-04-20T12:43:44.347Z,30.36
2017-04-20T12:44:44.949Z,30.57
2017-04-20T12:45:45.569Z,30.66
2017-04-20T12:46:46.170Z,30.26
2017-04-20T12:47:46.774Z,30.26
2017-04-20T12:48:47.381Z,29.88
2017-04-20T12:49:48.250Z,29.98
2017-04-20T12:50:48.857Z,30.26
2017-04-20T12:51:49.455Z,30.74
2017-04-20T12:52:50.057Z,30.55
2017-04-20T12:53:50.657Z,30.55
2017-04-20T12:54:51.260Z,30.83
2017-04-20T12:55:51.863Z,30.83
2017-04-20T12:56:52.488Z,31.21
2017-04-20T12:57:53.108Z,31.13
2017-04-20T12:58:53.718Z,31.32
2017-04-20T12:59:54.323Z,31.32
2017-04-20T13:00:54.927Z,30.57